LPPTLPFR

Guest
Details From LPPT - Lisboa
To LPFR - Faro
Flight Number -
Tags generated
Created
Modified
Stats Distance 124 nm / 229 km
Max Altitude 7,600 ft / 2,316 m
Waypoints 3
Social Downloads 3
Likes 0
Share VATSIM

Download

Looking for another format? Having issues loading an existing format? Contact us
Advertisement - Login to hide

Notes

Basic altitude profile: - Ascent Rate: 2500ft/min - Ascent Speed: 250kts - Cruise Altitude: 35000ft - Cruise Speed: 420kts - Descent Rate: 1500ft/min - Descent Speed: 250kts Options: - Use NATs: yes - Use PACOTS: yes - Use low airways: no - Use high airways: yes

Route

LPPT ESP LPFR

ID Type Via Altitude Latitude Longitude Leg Dist Tot Dist Heading (true) Name
O LPPT APT - 0 ft / 0 m 38.77856˚ -9.13515˚ - 0 nm - Lisboa
ESP VOR - 7,600 ft / 2,316 m 38.42427˚ -9.18578˚ 21 nm 21 nm 186° / 186° ESPICHEL VORTAC
O LPFR APT - 0 ft / 0 m 37.01534˚ -7.97233˚ 102 nm 123 nm 145° / 146° Faro

Altitude Profile

Advertisement - Login to hide

LPPT

Details ICAO LPPT (LIS)
Name Lisboa
Region Portugal
Timezone Europe/Lisbon (UTC+0.0)
Stats Elevation 374 ft / 114 m (AMSL)
Location 38.778559° -9.135146°
Runways 2
Magnetic Variation 2.365° W

METAR

LPPT 122000Z 30007KT CAVOK 10/06 Q1024

Decode

TAF

TAF LPPT 121700Z 1218/1324 32005KT 9999 FEW035 BECMG 1303/1306 VRB03KT BKN035 PROB30 1303/1309 5000 DZ BR BKN008 BECMG 1312/1314 12007KT BECMG 1317/1320 24007KT SCT010 BKN025

Decode

Departure Runways

ID Width Length Bearing (true) Bearing (mag) Surface Threshold Offset Overrun Length
03 148 ft / 45 m 12,518 ft / 3,815 m 22.70° 25.06° Asphalt 296 ft / 90 m 0 ft / 0 m
17 148 ft / 45 m 7,922 ft / 2,415 m 168.38° 170.74° Asphalt 0 ft / 0 m 0 ft / 0 m
21 148 ft / 45 m 12,518 ft / 3,815 m 202.72° 205.08° Asphalt 1,969 ft / 600 m 0 ft / 0 m
35 148 ft / 45 m 7,922 ft / 2,415 m 348.38° 350.74° Asphalt 492 ft / 150 m 0 ft / 0 m

LPFR

Details ICAO LPFR (FAO)
Name Faro
Region Portugal
Timezone Europe/Lisbon (UTC+0.0)
Stats Elevation 24 ft / 7 m (AMSL)
Location 37.015336° -7.972327°
Runways 1
Magnetic Variation 1.936° W

METAR

LPFR 122000Z 03004KT 310V060 CAVOK 11/03 Q1023

Decode

TAF

TAF LPFR 121700Z 1218/1318 01008KT CAVOK BECMG 1218/1220 33008KT BECMG 1221/1223 VRB03KT BECMG 1303/1305 04008KT BECMG 1310/1312 09010KT BECMG 1316/1318 02007KT

Decode

Destination Runways

ID Width Length Bearing (true) Bearing (mag) Surface Threshold Offset Overrun Length
10 148 ft / 45 m 8,148 ft / 2,484 m 100.08° 102.02° Asphalt 148 ft / 45 m 0 ft / 0 m
28 148 ft / 45 m 8,148 ft / 2,484 m 280.10° 282.04° Asphalt 148 ft / 45 m 0 ft / 0 m

Approach Navaids

Runway Type Ident Frequency Range Bearing (true) Bearing (mag) Slope Elevation
28 Localiser IIF 109.50 MHz 18 nm / 33 km 280.16° 282.10° - 24 ft / 7 m (AMSL)
28 Glidescope IIF 109.50 MHz 10 nm / 19 km 280.09° 282.02° 3.00° 24 ft / 7 m (AMSL)
28 DME IIF 109.50 MHz 18 nm / 33 km - - - 24 ft / 7 m (AMSL)

Popular Alternatives